Time;durP1;ratioP1;P1;durP2;ratioP2;P2;SDS_P1;SDS_P2;PMS_P1;PMS_P2;Temp;Humidity;BMP_temperature;BMP_pressure;BME280_temperature;BME280_humidity;BME280_pressure;Samples;Min_cycle;Max_cycle;Signal;HPM_P1;HPM_P2
2022/08/15 22:16:17;;;;;;;14.85;9.30;;;23.10;99.90;;;;;;3787907;23;20142;-91
2022/08/15 22:18:44;;;;;;;12.55;9.90;;;23.10;99.90;;;;;;4880945;29;20051;-92
2022/08/15 22:21:19;;;;;;;15.75;9.68;;;23.10;99.90;;;;;;4882543;29;20056;-91
2022/08/15 22:23:48;;;;;;;11.48;9.30;;;23.00;99.90;;;;;;4882666;29;20486;-91
2022/08/15 22:26:19;;;;;;;12.55;9.02;;;23.10;99.90;;;;;;4882766;29;20033;-92
2022/08/15 22:28:48;;;;;;;14.82;9.85;;;23.10;99.90;;;;;;4867378;29;20032;-91
2022/08/15 22:31:17;;;;;;;11.70;8.65;;;23.20;99.90;;;;;;4867409;29;20127;-90
2022/08/15 22:33:47;;;;;;;14.30;9.85;;;23.20;99.90;;;;;;4866615;29;20386;-95
2022/08/15 22:36:16;;;;;;;13.05;8.85;;;23.10;99.90;;;;;;4866998;29;20084;-93
2022/08/15 22:38:46;;;;;;;17.20;10.50;;;23.10;99.90;;;;;;4868661;29;20027;-90
2022/08/15 22:41:18;;;;;;;15.18;10.18;;;23.10;99.90;;;;;;4867582;29;20043;-92
2022/08/15 22:43:46;;;;;;;15.18;9.20;;;23.00;99.90;;;;;;4867170;29;20128;-93
2022/08/15 22:46:36;;;;;;;11.57;9.70;;;23.00;99.90;;;;;;4867096;29;20068;-92
2022/08/15 22:49:04;;;;;;;17.23;10.57;;;23.00;99.90;;;;;;4882183;29;20040;-91
2022/08/15 22:51:42;;;;;;;17.23;10.23;;;23.10;99.90;;;;;;4866995;29;20120;-92
2022/08/15 22:54:17;;;;;;;15.43;10.23;;;23.10;99.90;;;;;;4867018;29;20028;-90
2022/08/15 22:56:52;;;;;;;13.57;9.45;;;23.10;99.90;;;;;;4866903;29;20036;-93
2022/08/15 22:59:21;;;;;;;15.35;9.88;;;23.20;99.90;;;;;;4866800;29;20032;-92
2022/08/15 23:01:57;;;;;;;14.65;9.55;;;23.10;99.90;;;;;;4866969;29;20033;-91
2022/08/15 23:04:37;;;;;;;13.07;9.50;;;23.10;99.90;;;;;;4866942;29;20406;-92
2022/08/15 23:07:15;;;;;;;14.70;10.65;;;23.10;99.90;;;;;;4866787;29;20084;-92
2022/08/15 23:09:44;;;;;;;14.35;10.65;;;23.20;99.90;;;;;;4866778;29;20044;-92
2022/08/15 23:12:14;;;;;;;14.02;10.10;;;23.20;99.90;;;;;;4867185;29;20033;-91
2022/08/15 23:14:48;;;;;;;13.50;11.32;;;23.20;99.90;;;;;;4866797;29;20478;-91
2022/08/15 23:17:25;;;;;;;13.77;10.40;;;23.10;99.90;;;;;;4866430;29;20144;-92
2022/08/15 23:20:07;;;;;;;17.27;10.20;;;23.10;99.90;;;;;;4882241;29;20553;-93
2022/08/15 23:22:36;;;;;;;17.65;10.45;;;23.10;99.90;;;;;;4882180;29;20558;-90
2022/08/15 23:25:17;;;;;;;18.92;11.55;;;23.10;99.90;;;;;;4882318;29;20037;-92
2022/08/15 23:27:45;;;;;;;14.02;11.60;;;23.10;99.90;;;;;;4883456;29;20056;-92
2022/08/15 23:30:21;;;;;;;15.80;11.68;;;23.20;99.90;;;;;;4882191;29;20115;-92
2022/08/15 23:33:22;;;;;;;19.25;13.38;;;23.20;99.90;;;;;;4882175;29;20032;-92
2022/08/15 23:35:49;;;;;;;14.18;11.15;;;23.20;99.90;;;;;;4882136;29;20041;-90
2022/08/15 23:38:18;;;;;;;18.60;13.10;;;23.20;99.90;;;;;;4883185;29;20478;-90
2022/08/15 23:41:07;;;;;;;19.05;11.90;;;23.20;99.90;;;;;;4891971;29;20410;-91
2022/08/15 23:43:34;;;;;;;15.13;11.27;;;23.20;99.90;;;;;;4885973;29;20051;-92
2022/08/15 23:46:00;;;;;;;14.20;10.85;;;23.20;99.90;;;;;;4903044;29;20048;-91
2022/08/15 23:48:27;;;;;;;16.48;11.05;;;23.10;99.90;;;;;;4903889;29;20032;-92
2022/08/15 23:51:03;;;;;;;12.77;11.02;;;23.20;99.90;;;;;;4903777;29;20123;-93
2022/08/15 23:53:31;;;;;;;16.85;11.50;;;23.30;99.90;;;;;;4904171;29;20600;-93
2022/08/15 23:56:03;;;;;;;17.50;11.70;;;23.40;99.90;;;;;;4889596;29;20033;-91
2022/08/15 23:58:29;;;;;;;17.20;11.68;;;23.50;99.90;;;;;;4900610;29;20029;-91
